createdAt,value
2018-07-16T00:01:20.869Z,8.43
2018-07-16T00:03:49.387Z,9.50
2018-07-16T00:06:17.926Z,9.80
2018-07-16T00:08:46.460Z,9.80
2018-07-16T00:11:14.934Z,8.40
2018-07-16T00:13:43.485Z,9.20
2018-07-16T00:16:11.998Z,9.40
2018-07-16T00:18:40.493Z,8.80
2018-07-16T00:21:09.620Z,9.73
2018-07-16T00:23:38.135Z,10.73
2018-07-16T00:26:06.693Z,10.00
2018-07-16T00:28:35.197Z,10.60
2018-07-16T00:31:03.715Z,9.17
2018-07-16T00:33:32.452Z,9.37
2018-07-16T00:36:00.960Z,9.90
2018-07-16T00:38:29.490Z,9.37
2018-07-16T00:40:58.093Z,9.43
2018-07-16T00:43:26.660Z,8.93
2018-07-16T00:45:55.266Z,9.70
2018-07-16T00:48:23.756Z,9.00
2018-07-16T00:50:52.256Z,8.70
2018-07-16T00:53:20.739Z,8.70
2018-07-16T00:55:49.376Z,8.80
2018-07-16T00:58:17.734Z,9.80
2018-07-16T01:00:46.220Z,10.07
2018-07-16T01:03:14.695Z,10.07
2018-07-16T01:05:43.175Z,9.87
2018-07-16T01:08:11.698Z,10.37
2018-07-16T01:10:40.192Z,11.20
2018-07-16T01:13:08.724Z,10.17
2018-07-16T01:15:37.363Z,10.47
2018-07-16T01:18:06.167Z,9.70
2018-07-16T01:20:34.777Z,9.13
2018-07-16T01:23:03.267Z,9.70
2018-07-16T01:25:31.750Z,9.77
2018-07-16T01:28:00.272Z,9.40
2018-07-16T01:30:28.766Z,10.20
2018-07-16T01:32:57.222Z,9.73
2018-07-16T01:35:25.784Z,9.30
2018-07-16T01:37:54.227Z,8.93
2018-07-16T01:40:22.768Z,9.43
2018-07-16T01:42:51.252Z,8.30
2018-07-16T01:45:19.766Z,8.17
2018-07-16T01:47:48.234Z,8.30
2018-07-16T01:50:16.780Z,9.97
2018-07-16T01:52:45.300Z,10.33
2018-07-16T01:55:13.846Z,10.00
2018-07-16T01:57:42.337Z,10.53
2018-07-16T02:00:10.883Z,10.40
2018-07-16T02:02:39.406Z,11.23
2018-07-16T02:05:09.506Z,10.80
2018-07-16T02:07:46.346Z,10.87
2018-07-16T02:10:14.834Z,11.30
2018-07-16T02:12:43.909Z,10.60
2018-07-16T02:15:12.843Z,11.03
2018-07-16T02:20:15.383Z,10.87
2018-07-16T02:22:43.872Z,10.63
2018-07-16T02:25:12.516Z,11.50
2018-07-16T02:27:41.043Z,10.30
2018-07-16T02:30:09.558Z,11.57
2018-07-16T02:32:38.040Z,10.97
2018-07-16T02:35:06.608Z,10.37
2018-07-16T02:37:35.105Z,10.07
2018-07-16T02:40:10.650Z,10.10
2018-07-16T02:42:39.260Z,10.33
2018-07-16T02:45:07.850Z,9.73
2018-07-16T02:47:36.351Z,9.87
2018-07-16T02:50:04.863Z,9.83
2018-07-16T02:52:33.413Z,10.30
2018-07-16T02:55:02.063Z,9.70
2018-07-16T02:57:30.548Z,10.17
2018-07-16T02:59:59.237Z,9.57
2018-07-16T03:02:27.862Z,9.07
2018-07-16T03:04:56.363Z,9.25
2018-07-16T03:07:24.927Z,9.97
2018-07-16T03:09:54.036Z,9.15
2018-07-16T03:12:22.576Z,8.40
2018-07-16T03:14:51.066Z,8.80
2018-07-16T03:17:19.599Z,8.23
2018-07-16T03:19:48.229Z,8.40
2018-07-16T03:22:16.850Z,8.50
2018-07-16T03:24:45.389Z,8.67
2018-07-16T03:27:19.904Z,7.40
2018-07-16T03:29:48.454Z,8.90
2018-07-16T03:32:17.175Z,8.57
2018-07-16T03:34:48.026Z,8.28
2018-07-16T03:37:16.820Z,8.43
2018-07-16T03:39:50.669Z,9.00
2018-07-16T03:42:23.657Z,8.80
2018-07-16T03:44:52.313Z,8.73
2018-07-16T03:47:20.761Z,9.30
2018-07-16T03:49:49.243Z,9.60
2018-07-16T03:52:17.780Z,9.10
2018-07-16T03:54:46.291Z,9.50
2018-07-16T03:57:14.841Z,9.63
2018-07-16T03:59:43.365Z,9.47
2018-07-16T04:02:11.873Z,9.60
2018-07-16T04:04:40.386Z,9.47
2018-07-16T04:07:08.899Z,9.30
2018-07-16T04:09:37.421Z,8.83
2018-07-16T04:12:05.950Z,10.00
2018-07-16T04:14:34.486Z,9.08
2018-07-16T04:17:02.986Z,9.50
2018-07-16T04:19:31.536Z,11.00
2018-07-16T04:22:00.067Z,9.40
2018-07-16T04:24:28.595Z,9.00
2018-07-16T04:26:57.088Z,8.93
2018-07-16T04:29:25.596Z,8.97
2018-07-16T04:31:54.951Z,8.70
2018-07-16T04:34:23.527Z,8.45
2018-07-16T04:36:52.101Z,9.03
2018-07-16T04:39:20.656Z,9.15
2018-07-16T04:41:49.124Z,9.57
2018-07-16T04:44:17.685Z,9.20
2018-07-16T04:46:46.143Z,9.20
2018-07-16T04:49:14.634Z,9.00
2018-07-16T04:51:43.148Z,9.03
2018-07-16T04:54:16.505Z,8.50
2018-07-16T04:56:45.169Z,9.20
2018-07-16T04:59:13.663Z,8.57
2018-07-16T05:01:42.323Z,9.77
2018-07-16T05:04:10.913Z,8.70
2018-07-16T05:06:39.406Z,9.73
2018-07-16T05:09:07.922Z,9.60
2018-07-16T05:11:36.351Z,9.93
2018-07-16T05:14:04.962Z,9.30
2018-07-16T05:16:33.446Z,9.57
2018-07-16T05:19:01.971Z,8.80
2018-07-16T05:21:30.437Z,9.43
2018-07-16T05:23:58.993Z,9.40
2018-07-16T05:26:27.455Z,9.13
2018-07-16T05:28:56.654Z,8.97
2018-07-16T05:31:25.138Z,9.70
2018-07-16T05:33:53.685Z,9.30
2018-07-16T05:36:22.154Z,8.90
2018-07-16T05:38:50.640Z,8.63
2018-07-16T05:41:19.307Z,9.00
2018-07-16T05:43:47.827Z,9.73
2018-07-16T05:46:16.387Z,9.97
2018-07-16T05:48:44.875Z,9.60
2018-07-16T05:51:13.370Z,9.20
2018-07-16T05:53:41.937Z,8.93
2018-07-16T05:56:10.470Z,9.70
2018-07-16T05:58:38.958Z,8.90
2018-07-16T06:01:07.620Z,9.85
2018-07-16T06:03:36.132Z,9.17
2018-07-16T06:06:04.671Z,9.57
2018-07-16T06:08:33.976Z,9.40
2018-07-16T06:11:02.529Z,8.40
2018-07-16T06:13:31.047Z,8.97
2018-07-16T06:15:59.561Z,8.48
2018-07-16T06:18:28.123Z,8.00
2018-07-16T06:20:56.609Z,8.20
2018-07-16T06:23:25.104Z,8.37
2018-07-16T06:25:53.657Z,8.13
2018-07-16T06:28:22.122Z,8.75
2018-07-16T06:30:50.618Z,7.93
2018-07-16T06:33:19.089Z,9.67
2018-07-16T06:35:47.635Z,7.87
2018-07-16T06:38:16.098Z,7.50
2018-07-16T06:40:45.107Z,8.97
2018-07-16T06:43:13.376Z,9.67
2018-07-16T06:45:41.937Z,11.47
2018-07-16T06:48:10.449Z,9.90
2018-07-16T06:50:39.101Z,9.50
2018-07-16T06:53:07.602Z,8.90
2018-07-16T06:55:36.223Z,9.53
2018-07-16T06:58:04.773Z,10.50
2018-07-16T07:00:33.445Z,10.30
2018-07-16T07:03:01.917Z,11.18
2018-07-16T07:05:30.430Z,10.23
2018-07-16T07:07:58.969Z,10.60
2018-07-16T07:10:27.463Z,9.97
2018-07-16T07:12:55.994Z,9.90
2018-07-16T07:15:24.514Z,10.70
2018-07-16T07:17:53.000Z,10.15
2018-07-16T07:20:21.583Z,10.37
2018-07-16T07:22:50.544Z,10.10
2018-07-16T07:25:19.159Z,9.57
2018-07-16T07:27:47.683Z,10.60
2018-07-16T07:30:16.242Z,10.03
2018-07-16T07:32:44.798Z,11.17
2018-07-16T07:35:13.476Z,11.10
2018-07-16T07:37:41.888Z,11.38
2018-07-16T07:40:10.558Z,11.87
2018-07-16T07:45:39.127Z,12.40
2018-07-16T07:48:07.688Z,12.53
2018-07-16T07:50:36.193Z,11.40
2018-07-16T07:53:04.799Z,11.97
2018-07-16T07:55:33.358Z,12.00
2018-07-16T07:58:02.962Z,12.03
2018-07-16T08:00:31.472Z,11.50
2018-07-16T08:03:00.129Z,12.10
2018-07-16T08:05:28.731Z,13.15
2018-07-16T08:07:57.316Z,11.63
2018-07-16T08:10:25.916Z,14.87
2018-07-16T08:12:55.350Z,15.40
2018-07-16T08:15:23.920Z,14.10
2018-07-16T08:17:52.450Z,16.37
2018-07-16T08:20:20.987Z,17.70
2018-07-16T08:22:49.477Z,17.43
2018-07-16T08:25:18.053Z,16.30
2018-07-16T08:27:46.523Z,15.70
2018-07-16T08:30:15.010Z,15.83
2018-07-16T08:32:43.549Z,18.62
2018-07-16T08:35:12.095Z,17.70
2018-07-16T08:37:40.675Z,17.50
2018-07-16T08:40:09.290Z,18.32
2018-07-16T08:42:38.582Z,17.53
2018-07-16T08:45:07.191Z,19.27
2018-07-16T08:47:35.719Z,18.07
2018-07-16T08:50:04.435Z,16.60
2018-07-16T08:52:32.988Z,17.83
2018-07-16T08:55:01.583Z,19.05
2018-07-16T08:57:30.080Z,17.42
2018-07-16T09:06:41.764Z,17.50
2018-07-16T09:09:10.374Z,14.33
2018-07-16T09:11:38.959Z,11.80
2018-07-16T09:14:08.339Z,12.43
2018-07-16T09:16:36.837Z,11.53
2018-07-16T09:19:05.390Z,15.30
2018-07-16T09:21:33.857Z,13.23
2018-07-16T09:24:02.451Z,14.13
2018-07-16T09:26:31.183Z,13.40
2018-07-16T09:28:59.651Z,14.70
2018-07-16T09:31:28.285Z,15.47
2018-07-16T09:33:56.768Z,15.60
2018-07-16T09:36:25.371Z,16.43
2018-07-16T09:38:53.995Z,17.37
2018-07-16T09:41:22.539Z,17.50
2018-07-16T09:43:52.748Z,17.27
2018-07-16T09:46:21.275Z,16.70
2018-07-16T09:52:39.522Z,16.23
2018-07-16T09:55:09.500Z,15.07
2018-07-16T09:57:41.113Z,15.77
2018-07-16T10:00:13.273Z,14.43
2018-07-16T10:02:47.019Z,14.50
2018-07-16T10:05:31.281Z,15.23
2018-07-16T10:08:02.845Z,10.73
2018-07-16T10:10:37.343Z,7.80
2018-07-16T10:13:08.650Z,8.87
2018-07-16T10:15:38.809Z,8.27
2018-07-16T10:18:08.960Z,9.90
2018-07-16T10:20:40.172Z,8.93
2018-07-16T10:23:15.222Z,10.20
2018-07-16T10:25:47.540Z,10.40
2018-07-16T10:28:20.859Z,10.05
2018-07-16T10:30:53.453Z,8.60
2018-07-16T10:33:25.845Z,8.17
2018-07-16T10:36:01.348Z,7.80
2018-07-16T10:38:32.568Z,7.53
2018-07-16T10:41:01.352Z,7.10
2018-07-16T10:43:30.066Z,7.37
2018-07-16T10:45:58.576Z,8.37
2018-07-16T10:48:27.091Z,6.80
2018-07-16T10:50:55.597Z,6.47
2018-07-16T10:53:23.778Z,6.80
2018-07-16T10:55:52.310Z,6.40
2018-07-16T10:58:20.791Z,6.37
2018-07-16T11:00:49.336Z,6.70
2018-07-16T11:03:17.932Z,6.80
2018-07-16T11:05:46.553Z,5.63
2018-07-16T11:08:15.099Z,6.00
2018-07-16T11:10:43.594Z,5.67
2018-07-16T11:13:12.068Z,4.70
2018-07-16T11:15:40.655Z,5.73
2018-07-16T11:18:09.219Z,5.30
2018-07-16T11:20:37.715Z,5.00
2018-07-16T11:23:06.352Z,4.23
2018-07-16T11:25:34.894Z,4.40
2018-07-16T11:28:03.400Z,5.10
2018-07-16T11:30:31.886Z,4.63
2018-07-16T11:33:03.181Z,4.75
2018-07-16T12:48:10.719Z,3.07
2018-07-16T12:50:39.468Z,2.83
2018-07-16T12:53:08.160Z,3.20
2018-07-16T13:59:40.752Z,2.67
2018-07-16T14:02:09.264Z,2.73
2018-07-16T14:04:37.739Z,2.85
2018-07-16T15:10:48.397Z,3.70
2018-07-16T15:13:16.848Z,3.40
2018-07-16T16:19:02.926Z,3.20
2018-07-16T16:21:31.615Z,3.60
2018-07-16T16:24:00.051Z,3.80
2018-07-16T17:29:02.959Z,2.60
2018-07-16T17:31:32.242Z,2.77
2018-07-16T17:34:00.793Z,2.30
2018-07-16T18:40:19.363Z,3.45
2018-07-16T18:42:47.947Z,3.63
2018-07-16T18:45:16.420Z,3.93
2018-07-16T19:48:51.455Z,4.80
2018-07-16T19:51:20.015Z,5.60
2018-07-16T19:53:48.559Z,5.65
2018-07-16T20:38:57.898Z,5.10
2018-07-16T20:41:28.889Z,5.20
2018-07-16T20:43:59.297Z,5.17
2018-07-16T20:46:30.819Z,5.40
2018-07-16T20:49:03.941Z,5.67
2018-07-16T20:51:37.302Z,5.15
2018-07-16T20:54:06.428Z,5.80
2018-07-16T20:56:35.845Z,5.90
2018-07-16T20:59:04.994Z,5.17
2018-07-16T21:01:33.609Z,5.53
2018-07-16T21:04:03.548Z,5.57
2018-07-16T21:06:32.321Z,5.57
2018-07-16T21:09:04.002Z,5.73
2018-07-16T21:11:35.621Z,5.08
2018-07-16T21:14:06.123Z,5.97
2018-07-16T21:16:38.179Z,6.45
2018-07-16T21:19:07.798Z,7.05
2018-07-16T21:21:38.365Z,7.20
2018-07-16T21:24:09.517Z,7.35
2018-07-16T21:26:40.264Z,6.30
2018-07-16T21:29:13.064Z,7.20
2018-07-16T21:31:44.027Z,6.80
2018-07-16T21:34:14.854Z,6.95
2018-07-16T21:36:50.045Z,6.42
2018-07-16T21:39:22.805Z,6.30
2018-07-16T21:41:52.022Z,5.30
2018-07-16T21:44:22.612Z,6.57
2018-07-16T21:46:56.088Z,6.90
2018-07-16T21:49:28.471Z,6.78
2018-07-16T21:51:59.374Z,5.80
2018-07-16T21:54:32.695Z,6.23
2018-07-16T21:57:03.510Z,6.20
2018-07-16T21:59:37.574Z,6.00
2018-07-16T22:02:07.681Z,6.00
2018-07-16T22:04:36.598Z,7.63
2018-07-16T22:07:08.600Z,7.80
2018-07-16T22:09:40.626Z,7.50
2018-07-16T22:12:13.755Z,6.80
2018-07-16T22:14:45.427Z,7.40
2018-07-16T22:17:15.082Z,7.13
2018-07-16T22:19:44.327Z,6.50
2018-07-16T22:22:14.986Z,7.73
2018-07-16T22:24:47.609Z,7.80
2018-07-16T22:27:20.949Z,7.30
2018-07-16T22:29:52.953Z,6.63
2018-07-16T22:32:23.595Z,6.87
2018-07-16T22:37:32.904Z,6.77
2018-07-16T22:40:04.249Z,6.80
2018-07-16T22:42:35.672Z,6.90
2018-07-16T22:45:05.900Z,6.80
2018-07-16T22:47:36.659Z,5.55
2018-07-16T22:50:07.661Z,6.37
2018-07-16T22:52:38.138Z,6.80
2018-07-16T22:55:07.079Z,6.17
2018-07-16T22:57:38.245Z,6.73
2018-07-16T23:00:08.258Z,7.57
2018-07-16T23:02:42.626Z,7.15
2018-07-16T23:05:15.019Z,7.00
2018-07-16T23:07:45.326Z,7.47
2018-07-16T23:10:18.335Z,6.67
2018-07-16T23:12:48.650Z,7.00
2018-07-16T23:15:19.813Z,7.63
2018-07-16T23:17:49.936Z,7.10
2018-07-16T23:20:19.428Z,7.37
2018-07-16T23:22:57.547Z,7.30
2018-07-16T23:25:26.251Z,7.97
2018-07-16T23:27:54.791Z,7.28
2018-07-16T23:30:23.487Z,7.10
2018-07-16T23:32:51.987Z,8.23
2018-07-16T23:35:20.469Z,8.25
2018-07-16T23:37:49.033Z,7.60
2018-07-16T23:40:17.579Z,7.40
2018-07-16T23:42:48.727Z,7.17
2018-07-16T23:45:17.200Z,6.60
2018-07-16T23:47:46.639Z,7.30
2018-07-16T23:50:15.194Z,8.00
2018-07-16T23:52:43.643Z,7.20
2018-07-16T23:55:12.170Z,7.87
2018-07-16T23:57:40.737Z,6.90
